createdAt,value
2023-04-27T00:04:39.861Z,533.48
2023-04-27T00:09:54.385Z,542.93
2023-04-27T00:14:46.786Z,539.89
2023-04-27T00:19:46.699Z,542.06
2023-04-27T00:24:46.630Z,535.18
2023-04-27T00:29:46.571Z,535.60
2023-04-27T00:34:46.575Z,534.75
2023-04-27T00:39:46.502Z,537.74
2023-04-27T00:44:46.404Z,537.74
2023-04-27T00:49:46.316Z,538.60
2023-04-27T00:54:46.272Z,539.03
2023-04-27T00:59:46.194Z,537.31
2023-04-27T01:04:46.145Z,541.19
2023-04-27T01:09:46.034Z,540.76
2023-04-27T01:14:45.979Z,536.46
2023-04-27T01:19:45.950Z,534.33
2023-04-27T01:24:45.893Z,533.06
2023-04-27T01:29:45.754Z,533.06
2023-04-27T01:34:45.720Z,534.75
2023-04-27T01:39:45.674Z,530.55
2023-04-27T01:44:45.616Z,531.38
2023-04-27T01:49:45.493Z,530.55
2023-04-27T01:54:45.501Z,536.03
2023-04-27T01:59:45.365Z,529.71
2023-04-27T02:04:45.609Z,530.13
2023-04-27T02:09:45.268Z,531.38
2023-04-27T02:14:45.214Z,530.13
2023-04-27T02:19:45.125Z,529.30
2023-04-27T02:24:45.091Z,530.55
2023-04-27T02:29:44.978Z,534.75
2023-04-27T02:34:44.960Z,538.17
2023-04-27T02:39:44.929Z,533.06
2023-04-27T02:44:44.822Z,533.48
2023-04-27T02:49:44.739Z,536.88
2023-04-27T02:54:44.723Z,541.63
2023-04-27T02:59:44.586Z,541.19
2023-04-27T03:04:44.665Z,541.19
2023-04-27T03:09:44.484Z,540.76
2023-04-27T03:14:44.466Z,541.19
2023-04-27T03:19:44.345Z,541.63
2023-04-27T03:24:44.324Z,544.25
2023-04-27T03:29:44.225Z,547.79
2023-04-27T03:34:44.197Z,548.68
2023-04-27T03:39:44.080Z,552.72
2023-04-27T03:44:44.079Z,557.29
2023-04-27T03:49:43.967Z,559.14
2023-04-27T03:54:43.903Z,558.22
2023-04-27T03:59:43.901Z,555.46
2023-04-27T04:04:43.938Z,553.18
2023-04-27T04:09:43.703Z,548.68
2023-04-27T04:14:43.670Z,545.57
2023-04-27T04:19:58.043Z,542.93
2023-04-27T04:24:50.464Z,536.46
2023-04-27T04:29:50.462Z,533.91
2023-04-27T04:34:50.333Z,530.97
2023-04-27T04:39:50.299Z,531.38
2023-04-27T04:44:50.272Z,525.99
2023-04-27T04:49:50.147Z,521.12
2023-04-27T04:54:50.082Z,515.93
2023-04-27T04:59:50.038Z,515.54
2023-04-27T05:04:50.079Z,512.02
2023-04-27T05:09:49.901Z,510.47
2023-04-27T05:14:49.821Z,509.31
2023-04-27T05:19:49.800Z,508.54
2023-04-27T05:24:49.712Z,508.54
2023-04-27T05:29:49.642Z,507.77
2023-04-27T05:34:49.788Z,505.49
2023-04-27T05:39:49.511Z,504.73
2023-04-27T05:44:49.462Z,501.73
2023-04-27T05:49:49.375Z,499.87
2023-04-27T05:54:49.306Z,494.37
2023-04-27T05:59:49.255Z,490.77
2023-04-27T06:04:49.200Z,480.97
2023-04-27T06:09:49.150Z,476.89
2023-04-27T06:14:49.134Z,473.54
2023-04-27T06:19:49.065Z,472.55
2023-04-27T06:24:48.938Z,469.26
2023-04-27T06:29:48.933Z,469.59
2023-04-27T06:34:48.776Z,464.73
2023-04-27T06:39:48.715Z,444.51
2023-04-27T06:44:48.657Z,424.64
2023-04-27T06:49:49.898Z,412.94
2023-04-27T06:54:48.494Z,399.72
2023-04-27T06:59:48.680Z,369.70
2023-04-27T07:04:48.476Z,342.95
2023-04-27T07:09:48.354Z,321.67
2023-04-27T07:14:48.235Z,302.33
2023-04-27T07:19:48.219Z,283.95
2023-04-27T07:24:48.091Z,271.86
2023-04-27T07:29:48.064Z,259.12
2023-04-27T07:34:53.616Z,253.96
2023-04-27T07:39:48.987Z,250.13
2023-04-27T07:44:47.865Z,247.71
2023-04-27T07:49:47.777Z,247.15
2023-04-27T07:54:47.699Z,244.42
2023-04-27T07:59:47.660Z,243.35
2023-04-27T08:04:48.216Z,237.76
2023-04-27T08:09:47.494Z,234.41
2023-04-27T08:14:47.444Z,231.62
2023-04-27T08:19:47.397Z,227.81
2023-04-27T08:24:47.323Z,223.66
2023-04-27T08:29:47.249Z,222.91
2023-04-27T08:34:47.174Z,222.16
2023-04-27T08:39:47.130Z,220.83
2023-04-27T08:44:47.046Z,219.23
2023-04-27T08:50:16.771Z,218.07
2023-04-27T08:55:09.190Z,222.01
2023-04-27T09:00:09.120Z,221.72
2023-04-27T09:05:09.288Z,223.66
2023-04-27T09:10:08.973Z,222.16
2023-04-27T09:15:09.012Z,221.27
2023-04-27T09:20:08.835Z,221.27
2023-04-27T09:25:08.836Z,219.81
2023-04-27T09:30:08.727Z,219.52
2023-04-27T09:35:08.691Z,221.27
2023-04-27T09:40:08.606Z,220.39
2023-04-27T09:45:08.489Z,220.98
2023-04-27T09:50:08.452Z,217.65
2023-04-27T09:55:08.360Z,218.36
2023-04-27T10:00:08.362Z,216.79
2023-04-27T10:05:08.220Z,214.55
2023-04-27T10:10:08.170Z,212.76
2023-04-27T10:15:08.129Z,214.13
2023-04-27T10:20:08.157Z,214.27
2023-04-27T10:25:07.986Z,217.50
2023-04-27T10:30:07.931Z,219.96
2023-04-27T10:35:07.833Z,224.42
2023-04-27T10:40:07.799Z,227.65
2023-04-27T10:45:07.705Z,231.62
2023-04-27T10:50:07.660Z,232.44
2023-04-27T10:55:07.588Z,233.91
2023-04-27T11:00:07.542Z,236.24
2023-04-27T11:05:07.655Z,241.05
2023-04-27T11:10:07.416Z,241.40
2023-04-27T11:15:07.313Z,246.24
2023-04-27T11:20:07.273Z,245.14
2023-04-27T11:25:07.234Z,247.34
2023-04-27T11:30:07.140Z,250.51
2023-04-27T11:35:07.041Z,253.77
2023-04-27T11:40:06.990Z,256.12
2023-04-27T11:45:06.994Z,257.31
2023-04-27T11:50:06.898Z,260.34
2023-04-27T11:55:06.812Z,265.97
2023-04-27T12:00:06.816Z,267.91
2023-04-27T12:05:06.996Z,268.34
2023-04-27T12:10:06.605Z,272.53
2023-04-27T12:15:06.575Z,274.78
2023-04-27T12:20:06.653Z,279.65
2023-04-27T12:25:06.615Z,280.36
2023-04-27T12:30:07.384Z,282.75
2023-04-27T12:35:06.647Z,285.91
2023-04-27T12:40:06.199Z,285.91
2023-04-27T12:45:06.150Z,287.40
2023-04-27T12:50:06.083Z,287.40
2023-04-27T12:55:06.002Z,290.42
2023-04-27T13:00:05.954Z,292.21
2023-04-27T13:05:05.950Z,299.33
2023-04-27T13:10:05.857Z,302.88
2023-04-27T13:15:05.768Z,296.65
2023-04-27T13:20:05.684Z,300.68
2023-04-27T13:25:05.593Z,300.68
2023-04-27T13:30:05.620Z,305.95
2023-04-27T13:35:05.490Z,305.11
2023-04-27T13:40:05.412Z,309.37
2023-04-27T13:45:05.338Z,311.99
2023-04-27T13:50:05.280Z,316.45
2023-04-27T13:55:05.196Z,318.27
2023-04-27T14:00:05.162Z,321.67
2023-04-27T14:05:05.153Z,322.92
2023-04-27T14:10:05.115Z,323.55
2023-04-27T14:20:04.986Z,323.55
2023-04-27T14:25:04.786Z,323.87
2023-04-27T14:30:04.753Z,324.18
2023-04-27T14:35:04.707Z,322.61
2023-04-27T14:40:04.609Z,327.06
2023-04-27T14:45:04.551Z,327.71
2023-04-27T14:50:04.546Z,325.46
2023-04-27T14:55:04.442Z,329.01
2023-04-27T15:00:04.364Z,329.66
2023-04-27T15:05:04.365Z,327.06
2023-04-27T15:10:04.216Z,324.18
2023-04-27T15:15:04.158Z,326.10
2023-04-27T15:20:04.112Z,326.10
2023-04-27T15:25:03.999Z,328.68
2023-04-27T15:30:03.999Z,333.30
2023-04-27T15:35:03.878Z,331.97
2023-04-27T15:40:03.910Z,331.97
2023-04-27T15:45:03.756Z,330.32
2023-04-27T15:50:03.822Z,332.63
2023-04-27T15:55:03.627Z,333.97
2023-04-27T16:00:03.573Z,333.97
2023-04-27T16:05:03.485Z,336.00
2023-04-27T16:10:03.496Z,339.09
2023-04-27T16:15:03.312Z,338.40
2023-04-27T16:20:03.345Z,339.44
2023-04-27T16:25:03.229Z,336.34
2023-04-27T16:30:03.174Z,340.14
2023-04-27T16:35:03.325Z,338.75
2023-04-27T16:40:03.127Z,341.54
2023-04-27T16:45:02.993Z,345.45
2023-04-27T16:50:02.920Z,355.06
2023-04-27T16:55:02.805Z,353.92
2023-04-27T17:00:02.835Z,354.30
2023-04-27T17:05:02.715Z,355.44
2023-04-27T17:10:02.622Z,356.97
2023-04-27T17:15:02.628Z,358.12
2023-04-27T17:20:02.502Z,358.12
2023-04-27T17:25:02.387Z,357.35
2023-04-27T17:30:02.355Z,360.85
2023-04-27T17:35:02.352Z,362.82
2023-04-27T17:40:02.226Z,365.62
2023-04-27T17:45:02.166Z,367.24
2023-04-27T17:50:02.114Z,366.83
2023-04-27T17:55:09.912Z,372.18
2023-04-27T18:00:01.993Z,373.44
2023-04-27T18:05:01.945Z,377.98
2023-04-27T18:10:01.824Z,378.83
2023-04-27T18:15:04.349Z,380.33
2023-04-27T18:20:08.145Z,382.05
2023-04-27T18:25:02.675Z,378.62
2023-04-27T18:30:01.583Z,381.19
2023-04-27T18:35:01.489Z,378.62
2023-04-27T18:40:01.440Z,379.90
2023-04-27T18:45:01.353Z,383.79
2023-04-27T18:50:01.315Z,385.99
2023-04-27T18:55:01.221Z,385.99
2023-04-27T19:00:01.226Z,388.88
2023-04-27T19:05:10.835Z,389.33
2023-04-27T19:10:02.073Z,392.05
2023-04-27T19:15:00.948Z,392.28
2023-04-27T19:20:00.917Z,390.91
2023-04-27T19:25:00.835Z,394.11
2023-04-27T19:30:00.758Z,399.24
2023-04-27T19:35:00.729Z,402.82
2023-04-27T19:40:00.650Z,408.68
2023-04-27T19:45:00.524Z,407.45
2023-04-27T19:50:00.522Z,417.02
2023-04-27T19:55:00.430Z,417.02
2023-04-27T20:00:00.406Z,417.28
2023-04-27T20:05:00.488Z,420.93
2023-04-27T20:10:00.238Z,421.72
2023-04-27T20:15:00.220Z,423.30
2023-04-27T20:20:00.128Z,424.90
2023-04-27T20:25:00.070Z,425.71
2023-04-27T20:29:59.963Z,425.71
2023-04-27T20:35:02.031Z,428.14
2023-04-27T20:39:59.832Z,429.23
2023-04-27T20:44:59.756Z,431.43
2023-04-27T20:49:59.712Z,434.49
2023-04-27T20:54:59.627Z,440.16
2023-04-27T20:59:59.556Z,438.44
2023-04-27T21:04:59.533Z,441.31
2023-04-27T21:09:59.415Z,442.76
2023-04-27T21:14:59.363Z,439.59
2023-04-27T21:19:59.253Z,441.31
2023-04-27T21:24:59.239Z,442.47
2023-04-27T21:29:59.152Z,442.76
2023-04-27T21:34:59.078Z,442.18
2023-04-27T21:39:59.004Z,443.05
2023-04-27T21:44:58.974Z,444.80
2023-04-27T21:49:58.880Z,444.22
2023-04-27T21:54:58.829Z,444.51
2023-04-27T21:59:58.764Z,439.30
2023-04-27T22:04:58.812Z,437.59
2023-04-27T22:09:58.616Z,437.87
2023-04-27T22:14:58.588Z,434.77
2023-04-27T22:19:58.492Z,438.44
2023-04-27T22:24:58.433Z,438.16
2023-04-27T22:29:58.345Z,435.89
2023-04-27T22:34:58.306Z,434.21
2023-04-27T22:39:58.215Z,433.93
2023-04-27T22:44:58.147Z,430.88
2023-04-27T22:49:58.115Z,429.78
2023-04-27T22:54:58.031Z,429.51
2023-04-27T22:59:57.939Z,433.37
2023-04-27T23:04:57.903Z,430.33
2023-04-27T23:09:57.832Z,432.81
2023-04-27T23:14:57.760Z,434.49
2023-04-27T23:19:57.677Z,433.37
2023-04-27T23:24:57.638Z,429.51
2023-04-27T23:29:57.559Z,424.37
2023-04-27T23:34:57.525Z,421.19
2023-04-27T23:39:57.421Z,420.14
2023-04-27T23:44:57.349Z,419.62
2023-04-27T23:49:57.289Z,419.10
2023-04-27T23:54:57.250Z,421.45
2023-04-27T23:59:57.145Z,419.36
